sensor_id;sensor_type;location;lat;lon;timestamp;P1;durP1;ratioP1;P2;durP2;ratioP2
63902;SDS011;50072;50.678;13.938;2022-11-24T00:01:48;69.50;;;26.75;;
63902;SDS011;50072;50.678;13.938;2022-11-24T00:04:19;75.25;;;28.63;;
63902;SDS011;50072;50.678;13.938;2022-11-24T00:09:20;68.47;;;26.98;;
63902;SDS011;50072;50.678;13.938;2022-11-24T00:11:48;74.13;;;27.93;;
63902;SDS011;50072;50.678;13.938;2022-11-24T00:14:18;68.03;;;26.40;;
63902;SDS011;50072;50.678;13.938;2022-11-24T00:16:50;68.07;;;26.10;;
63902;SDS011;50072;50.678;13.938;2022-11-24T00:19:18;66.93;;;26.33;;
63902;SDS011;50072;50.678;13.938;2022-11-24T00:21:48;64.57;;;25.73;;
63902;SDS011;50072;50.678;13.938;2022-11-24T00:24:19;71.13;;;26.60;;
63902;SDS011;50072;50.678;13.938;2022-11-24T00:26:48;64.10;;;24.90;;
63902;SDS011;50072;50.678;13.938;2022-11-24T00:29:18;66.80;;;24.77;;
63902;SDS011;50072;50.678;13.938;2022-11-24T00:34:18;58.28;;;24.40;;
63902;SDS011;50072;50.678;13.938;2022-11-24T00:36:50;56.42;;;23.38;;
63902;SDS011;50072;50.678;13.938;2022-11-24T00:39:18;56.35;;;22.92;;
63902;SDS011;50072;50.678;13.938;2022-11-24T00:41:43;57.92;;;22.80;;
63902;SDS011;50072;50.678;13.938;2022-11-24T00:44:18;57.97;;;22.10;;
63902;SDS011;50072;50.678;13.938;2022-11-24T00:46:48;57.15;;;22.92;;
63902;SDS011;50072;50.678;13.938;2022-11-24T00:51:49;55.03;;;22.05;;
63902;SDS011;50072;50.678;13.938;2022-11-24T00:54:18;53.97;;;21.90;;
63902;SDS011;50072;50.678;13.938;2022-11-24T00:59:18;56.22;;;22.38;;
63902;SDS011;50072;50.678;13.938;2022-11-24T01:06:48;54.85;;;21.60;;
63902;SDS011;50072;50.678;13.938;2022-11-24T01:09:18;54.28;;;21.63;;
63902;SDS011;50072;50.678;13.938;2022-11-24T01:11:49;56.03;;;23.42;;
63902;SDS011;50072;50.678;13.938;2022-11-24T01:14:35;71.82;;;28.35;;
63902;SDS011;50072;50.678;13.938;2022-11-24T01:17:18;60.78;;;25.60;;
63902;SDS011;50072;50.678;13.938;2022-11-24T01:19:45;53.30;;;21.42;;
63902;SDS011;50072;50.678;13.938;2022-11-24T01:22:18;53.60;;;22.15;;
63902;SDS011;50072;50.678;13.938;2022-11-24T01:24:50;54.03;;;21.42;;
63902;SDS011;50072;50.678;13.938;2022-11-24T01:27:18;51.00;;;21.23;;
63902;SDS011;50072;50.678;13.938;2022-11-24T01:29:48;54.70;;;21.35;;
63902;SDS011;50072;50.678;13.938;2022-11-24T01:32:20;47.30;;;20.10;;
63902;SDS011;50072;50.678;13.938;2022-11-24T01:34:48;50.55;;;20.13;;
63902;SDS011;50072;50.678;13.938;2022-11-24T01:37:18;49.10;;;19.58;;
63902;SDS011;50072;50.678;13.938;2022-11-24T01:39:50;47.60;;;18.30;;
63902;SDS011;50072;50.678;13.938;2022-11-24T01:42:18;48.20;;;20.15;;
63902;SDS011;50072;50.678;13.938;2022-11-24T01:45:24;47.08;;;19.15;;
63902;SDS011;50072;50.678;13.938;2022-11-24T01:47:48;54.08;;;21.02;;
63902;SDS011;50072;50.678;13.938;2022-11-24T01:53:05;53.35;;;20.65;;
63902;SDS011;50072;50.678;13.938;2022-11-24T01:58:19;50.67;;;20.23;;
63902;SDS011;50072;50.678;13.938;2022-11-24T02:01:06;49.47;;;20.50;;
63902;SDS011;50072;50.678;13.938;2022-11-24T02:03:48;42.78;;;18.10;;
63902;SDS011;50072;50.678;13.938;2022-11-24T02:06:20;40.83;;;17.87;;
63902;SDS011;50072;50.678;13.938;2022-11-24T02:11:48;46.92;;;19.13;;
63902;SDS011;50072;50.678;13.938;2022-11-24T02:14:18;46.55;;;18.63;;
63902;SDS011;50072;50.678;13.938;2022-11-24T02:16:49;51.75;;;19.33;;
63902;SDS011;50072;50.678;13.938;2022-11-24T02:22:11;46.10;;;18.92;;
63902;SDS011;50072;50.678;13.938;2022-11-24T02:30:21;48.95;;;20.52;;
63902;SDS011;50072;50.678;13.938;2022-11-24T02:32:48;48.28;;;18.90;;
63902;SDS011;50072;50.678;13.938;2022-11-24T02:35:20;49.45;;;18.63;;
63902;SDS011;50072;50.678;13.938;2022-11-24T02:37:48;50.97;;;19.10;;
63902;SDS011;50072;50.678;13.938;2022-11-24T02:40:20;48.60;;;19.08;;
63902;SDS011;50072;50.678;13.938;2022-11-24T02:45:48;46.20;;;18.00;;
63902;SDS011;50072;50.678;13.938;2022-11-24T02:48:20;44.38;;;17.60;;
63902;SDS011;50072;50.678;13.938;2022-11-24T02:50:45;45.77;;;18.90;;
63902;SDS011;50072;50.678;13.938;2022-11-24T02:53:12;48.00;;;18.70;;
63902;SDS011;50072;50.678;13.938;2022-11-24T02:55:48;44.03;;;17.48;;
63902;SDS011;50072;50.678;13.938;2022-11-24T02:58:20;45.03;;;17.10;;
63902;SDS011;50072;50.678;13.938;2022-11-24T03:00:48;46.20;;;16.65;;
63902;SDS011;50072;50.678;13.938;2022-11-24T03:03:21;43.33;;;16.52;;
63902;SDS011;50072;50.678;13.938;2022-11-24T03:05:48;36.80;;;15.02;;
63902;SDS011;50072;50.678;13.938;2022-11-24T03:08:18;40.40;;;15.68;;
63902;SDS011;50072;50.678;13.938;2022-11-24T03:10:50;36.80;;;15.43;;
63902;SDS011;50072;50.678;13.938;2022-11-24T03:13:18;34.97;;;15.00;;
63902;SDS011;50072;50.678;13.938;2022-11-24T03:15:48;37.75;;;15.15;;
63902;SDS011;50072;50.678;13.938;2022-11-24T03:18:20;35.15;;;14.90;;
63902;SDS011;50072;50.678;13.938;2022-11-24T03:20:48;36.83;;;14.43;;
63902;SDS011;50072;50.678;13.938;2022-11-24T03:23:18;38.58;;;15.98;;
63902;SDS011;50072;50.678;13.938;2022-11-24T03:25:49;37.97;;;14.75;;
63902;SDS011;50072;50.678;13.938;2022-11-24T03:28:18;32.85;;;13.75;;
63902;SDS011;50072;50.678;13.938;2022-11-24T03:30:49;33.08;;;12.93;;
63902;SDS011;50072;50.678;13.938;2022-11-24T03:33:18;31.58;;;12.85;;
63902;SDS011;50072;50.678;13.938;2022-11-24T03:35:48;30.02;;;12.23;;
63902;SDS011;50072;50.678;13.938;2022-11-24T03:38:20;32.25;;;13.30;;
63902;SDS011;50072;50.678;13.938;2022-11-24T03:40:47;32.60;;;13.40;;
63902;SDS011;50072;50.678;13.938;2022-11-24T03:43:20;29.73;;;13.02;;
63902;SDS011;50072;50.678;13.938;2022-11-24T03:45:48;33.40;;;12.85;;
63902;SDS011;50072;50.678;13.938;2022-11-24T03:48:18;28.83;;;12.98;;
63902;SDS011;50072;50.678;13.938;2022-11-24T03:50:53;28.27;;;11.50;;
63902;SDS011;50072;50.678;13.938;2022-11-24T03:56:18;29.35;;;11.98;;
63902;SDS011;50072;50.678;13.938;2022-11-24T03:58:48;29.92;;;11.82;;
63902;SDS011;50072;50.678;13.938;2022-11-24T04:01:20;27.33;;;11.18;;
63902;SDS011;50072;50.678;13.938;2022-11-24T04:03:48;26.92;;;11.30;;
63902;SDS011;50072;50.678;13.938;2022-11-24T04:06:19;29.50;;;12.07;;
63902;SDS011;50072;50.678;13.938;2022-11-24T04:08:48;27.02;;;11.13;;
63902;SDS011;50072;50.678;13.938;2022-11-24T04:11:18;23.48;;;10.63;;
63902;SDS011;50072;50.678;13.938;2022-11-24T04:14:03;28.45;;;13.00;;
63902;SDS011;50072;50.678;13.938;2022-11-24T04:19:18;30.23;;;12.13;;
63902;SDS011;50072;50.678;13.938;2022-11-24T04:21:48;28.45;;;12.38;;
63902;SDS011;50072;50.678;13.938;2022-11-24T04:24:18;24.67;;;10.57;;
63902;SDS011;50072;50.678;13.938;2022-11-24T04:29:18;23.50;;;9.90;;
63902;SDS011;50072;50.678;13.938;2022-11-24T04:31:48;23.08;;;9.80;;
63902;SDS011;50072;50.678;13.938;2022-11-24T04:34:20;25.73;;;12.43;;
63902;SDS011;50072;50.678;13.938;2022-11-24T04:36:48;23.58;;;11.25;;
63902;SDS011;50072;50.678;13.938;2022-11-24T04:39:21;30.58;;;12.48;;
63902;SDS011;50072;50.678;13.938;2022-11-24T04:41:48;30.63;;;13.40;;
63902;SDS011;50072;50.678;13.938;2022-11-24T04:44:20;30.05;;;12.80;;
63902;SDS011;50072;50.678;13.938;2022-11-24T04:46:48;47.95;;;14.10;;
63902;SDS011;50072;50.678;13.938;2022-11-24T04:49:18;46.00;;;13.60;;
63902;SDS011;50072;50.678;13.938;2022-11-24T04:51:44;40.03;;;12.70;;
63902;SDS011;50072;50.678;13.938;2022-11-24T04:54:18;34.85;;;11.60;;
63902;SDS011;50072;50.678;13.938;2022-11-24T04:56:51;24.42;;;9.75;;
63902;SDS011;50072;50.678;13.938;2022-11-24T04:59:18;23.02;;;9.40;;
63902;SDS011;50072;50.678;13.938;2022-11-24T05:01:45;22.75;;;9.32;;
63902;SDS011;50072;50.678;13.938;2022-11-24T05:04:13;28.33;;;10.77;;
63902;SDS011;50072;50.678;13.938;2022-11-24T05:06:40;23.27;;;9.40;;
63902;SDS011;50072;50.678;13.938;2022-11-24T05:09:06;23.90;;;9.38;;
63902;SDS011;50072;50.678;13.938;2022-11-24T05:11:32;23.45;;;10.10;;
63902;SDS011;50072;50.678;13.938;2022-11-24T05:13:59;21.67;;;9.57;;
63902;SDS011;50072;50.678;13.938;2022-11-24T05:16:25;20.42;;;9.02;;
63902;SDS011;50072;50.678;13.938;2022-11-24T05:18:50;23.75;;;8.85;;
63902;SDS011;50072;50.678;13.938;2022-11-24T05:21:16;19.77;;;8.65;;
63902;SDS011;50072;50.678;13.938;2022-11-24T05:23:42;19.10;;;8.20;;
63902;SDS011;50072;50.678;13.938;2022-11-24T05:26:11;18.67;;;8.48;;
63902;SDS011;50072;50.678;13.938;2022-11-24T05:28:37;22.33;;;9.40;;
63902;SDS011;50072;50.678;13.938;2022-11-24T05:31:04;27.40;;;11.57;;
63902;SDS011;50072;50.678;13.938;2022-11-24T05:33:29;25.17;;;10.57;;
63902;SDS011;50072;50.678;13.938;2022-11-24T05:38:31;27.60;;;9.55;;
63902;SDS011;50072;50.678;13.938;2022-11-24T05:41:01;25.20;;;9.80;;
63902;SDS011;50072;50.678;13.938;2022-11-24T05:43:28;26.98;;;10.60;;
63902;SDS011;50072;50.678;13.938;2022-11-24T05:45:57;24.98;;;10.10;;
63902;SDS011;50072;50.678;13.938;2022-11-24T05:48:26;23.50;;;9.10;;
63902;SDS011;50072;50.678;13.938;2022-11-24T05:50:52;25.27;;;9.98;;
63902;SDS011;50072;50.678;13.938;2022-11-24T05:53:22;22.85;;;10.90;;
63902;SDS011;50072;50.678;13.938;2022-11-24T05:55:48;25.83;;;9.18;;
63902;SDS011;50072;50.678;13.938;2022-11-24T05:58:15;24.50;;;10.25;;
63902;SDS011;50072;50.678;13.938;2022-11-24T06:00:48;28.27;;;11.57;;
63902;SDS011;50072;50.678;13.938;2022-11-24T06:03:18;29.45;;;12.57;;
63902;SDS011;50072;50.678;13.938;2022-11-24T06:05:49;24.15;;;10.70;;
63902;SDS011;50072;50.678;13.938;2022-11-24T06:08:18;24.35;;;9.88;;
63902;SDS011;50072;50.678;13.938;2022-11-24T06:10:50;24.95;;;10.40;;
63902;SDS011;50072;50.678;13.938;2022-11-24T06:13:15;25.90;;;10.95;;
63902;SDS011;50072;50.678;13.938;2022-11-24T06:15:48;23.50;;;9.77;;
63902;SDS011;50072;50.678;13.938;2022-11-24T06:18:18;24.75;;;10.63;;
63902;SDS011;50072;50.678;13.938;2022-11-24T06:20:44;21.88;;;10.20;;
63902;SDS011;50072;50.678;13.938;2022-11-24T06:23:10;22.20;;;9.77;;
63902;SDS011;50072;50.678;13.938;2022-11-24T06:25:37;21.95;;;10.23;;
63902;SDS011;50072;50.678;13.938;2022-11-24T06:28:05;22.48;;;10.07;;
63902;SDS011;50072;50.678;13.938;2022-11-24T06:30:31;23.40;;;11.60;;
63902;SDS011;50072;50.678;13.938;2022-11-24T06:32:58;23.88;;;11.43;;
63902;SDS011;50072;50.678;13.938;2022-11-24T06:35:24;28.98;;;11.15;;
63902;SDS011;50072;50.678;13.938;2022-11-24T06:37:56;23.90;;;11.10;;
63902;SDS011;50072;50.678;13.938;2022-11-24T06:40:22;25.83;;;11.23;;
63902;SDS011;50072;50.678;13.938;2022-11-24T06:42:49;24.55;;;10.85;;
63902;SDS011;50072;50.678;13.938;2022-11-24T06:45:16;24.00;;;11.18;;
63902;SDS011;50072;50.678;13.938;2022-11-24T06:47:42;28.92;;;13.23;;
63902;SDS011;50072;50.678;13.938;2022-11-24T06:50:09;29.10;;;13.52;;
63902;SDS011;50072;50.678;13.938;2022-11-24T06:52:36;29.52;;;12.82;;
63902;SDS011;50072;50.678;13.938;2022-11-24T06:55:04;34.95;;;14.95;;
63902;SDS011;50072;50.678;13.938;2022-11-24T06:57:31;31.23;;;13.55;;
63902;SDS011;50072;50.678;13.938;2022-11-24T06:59:56;39.42;;;15.45;;
63902;SDS011;50072;50.678;13.938;2022-11-24T07:02:23;30.08;;;12.48;;
63902;SDS011;50072;50.678;13.938;2022-11-24T07:04:48;30.75;;;14.48;;
63902;SDS011;50072;50.678;13.938;2022-11-24T07:07:15;32.95;;;15.90;;
63902;SDS011;50072;50.678;13.938;2022-11-24T07:09:41;38.20;;;16.83;;
63902;SDS011;50072;50.678;13.938;2022-11-24T07:12:07;31.77;;;14.38;;
63902;SDS011;50072;50.678;13.938;2022-11-24T07:14:33;32.55;;;13.50;;
63902;SDS011;50072;50.678;13.938;2022-11-24T07:16:59;36.08;;;15.55;;
63902;SDS011;50072;50.678;13.938;2022-11-24T07:19:28;38.28;;;15.35;;
63902;SDS011;50072;50.678;13.938;2022-11-24T07:21:54;34.30;;;15.73;;
63902;SDS011;50072;50.678;13.938;2022-11-24T07:24:21;35.20;;;16.88;;
63902;SDS011;50072;50.678;13.938;2022-11-24T07:26:47;35.35;;;16.40;;
63902;SDS011;50072;50.678;13.938;2022-11-24T07:29:14;30.83;;;14.32;;
63902;SDS011;50072;50.678;13.938;2022-11-24T07:31:42;28.55;;;12.98;;
63902;SDS011;50072;50.678;13.938;2022-11-24T07:34:09;35.20;;;17.13;;
63902;SDS011;50072;50.678;13.938;2022-11-24T07:36:35;37.72;;;18.02;;
63902;SDS011;50072;50.678;13.938;2022-11-24T07:39:00;31.23;;;15.57;;
63902;SDS011;50072;50.678;13.938;2022-11-24T07:41:26;33.67;;;15.38;;
63902;SDS011;50072;50.678;13.938;2022-11-24T07:43:54;40.97;;;19.10;;
63902;SDS011;50072;50.678;13.938;2022-11-24T07:46:21;35.53;;;16.73;;
63902;SDS011;50072;50.678;13.938;2022-11-24T07:48:48;33.38;;;16.30;;
63902;SDS011;50072;50.678;13.938;2022-11-24T07:51:14;28.60;;;13.55;;
63902;SDS011;50072;50.678;13.938;2022-11-24T07:53:40;27.63;;;12.07;;
63902;SDS011;50072;50.678;13.938;2022-11-24T07:56:07;25.00;;;12.50;;
63902;SDS011;50072;50.678;13.938;2022-11-24T07:58:35;27.77;;;13.82;;
63902;SDS011;50072;50.678;13.938;2022-11-24T08:01:12;34.33;;;15.90;;
63902;SDS011;50072;50.678;13.938;2022-11-24T08:03:42;32.58;;;15.95;;
63902;SDS011;50072;50.678;13.938;2022-11-24T08:06:08;37.03;;;16.50;;
63902;SDS011;50072;50.678;13.938;2022-11-24T08:08:37;34.47;;;16.30;;
63902;SDS011;50072;50.678;13.938;2022-11-24T08:11:07;35.97;;;16.13;;
63902;SDS011;50072;50.678;13.938;2022-11-24T08:13:35;42.33;;;17.90;;
63902;SDS011;50072;50.678;13.938;2022-11-24T08:16:11;43.35;;;18.80;;
63902;SDS011;50072;50.678;13.938;2022-11-24T08:18:40;45.03;;;17.75;;
63902;SDS011;50072;50.678;13.938;2022-11-24T08:21:10;36.50;;;16.98;;
63902;SDS011;50072;50.678;13.938;2022-11-24T08:23:37;42.83;;;18.50;;
63902;SDS011;50072;50.678;13.938;2022-11-24T08:26:07;45.72;;;18.65;;
63902;SDS011;50072;50.678;13.938;2022-11-24T08:28:37;45.50;;;19.77;;
63902;SDS011;50072;50.678;13.938;2022-11-24T08:31:03;48.53;;;20.15;;
63902;SDS011;50072;50.678;13.938;2022-11-24T08:33:31;53.38;;;23.30;;
63902;SDS011;50072;50.678;13.938;2022-11-24T08:36:07;63.30;;;22.83;;
63902;SDS011;50072;50.678;13.938;2022-11-24T08:38:35;71.10;;;26.15;;
63902;SDS011;50072;50.678;13.938;2022-11-24T08:41:06;48.50;;;18.90;;
63902;SDS011;50072;50.678;13.938;2022-11-24T08:43:36;49.38;;;20.35;;
63902;SDS011;50072;50.678;13.938;2022-11-24T08:46:03;49.50;;;19.52;;
63902;SDS011;50072;50.678;13.938;2022-11-24T08:48:31;44.50;;;18.52;;
63902;SDS011;50072;50.678;13.938;2022-11-24T08:50:57;52.03;;;21.48;;
63902;SDS011;50072;50.678;13.938;2022-11-24T08:53:25;50.88;;;23.92;;
63902;SDS011;50072;50.678;13.938;2022-11-24T08:55:52;72.97;;;37.60;;
63902;SDS011;50072;50.678;13.938;2022-11-24T08:58:23;68.30;;;32.25;;
63902;SDS011;50072;50.678;13.938;2022-11-24T09:00:49;52.53;;;24.75;;
63902;SDS011;50072;50.678;13.938;2022-11-24T09:03:15;48.67;;;19.98;;
63902;SDS011;50072;50.678;13.938;2022-11-24T09:05:41;43.03;;;19.15;;
63902;SDS011;50072;50.678;13.938;2022-11-24T09:08:07;50.88;;;19.50;;
63902;SDS011;50072;50.678;13.938;2022-11-24T09:10:32;46.50;;;18.85;;
63902;SDS011;50072;50.678;13.938;2022-11-24T09:12:59;44.45;;;19.60;;
63902;SDS011;50072;50.678;13.938;2022-11-24T09:15:26;42.35;;;19.85;;
63902;SDS011;50072;50.678;13.938;2022-11-24T09:17:52;43.92;;;18.75;;
63902;SDS011;50072;50.678;13.938;2022-11-24T09:20:18;43.60;;;19.08;;
63902;SDS011;50072;50.678;13.938;2022-11-24T09:22:45;43.28;;;19.25;;
63902;SDS011;50072;50.678;13.938;2022-11-24T09:25:13;42.13;;;17.63;;
63902;SDS011;50072;50.678;13.938;2022-11-24T09:27:39;44.80;;;17.88;;
63902;SDS011;50072;50.678;13.938;2022-11-24T09:30:06;40.03;;;17.67;;
63902;SDS011;50072;50.678;13.938;2022-11-24T09:32:36;42.28;;;18.33;;
63902;SDS011;50072;50.678;13.938;2022-11-24T09:35:16;44.30;;;18.90;;
63902;SDS011;50072;50.678;13.938;2022-11-24T09:37:48;49.72;;;19.52;;
63902;SDS011;50072;50.678;13.938;2022-11-24T09:45:32;57.42;;;22.20;;
63902;SDS011;50072;50.678;13.938;2022-11-24T09:48:20;56.50;;;22.23;;
63902;SDS011;50072;50.678;13.938;2022-11-24T09:51:00;49.70;;;19.83;;
63902;SDS011;50072;50.678;13.938;2022-11-24T09:53:36;52.05;;;19.95;;
63902;SDS011;50072;50.678;13.938;2022-11-24T10:01:48;62.17;;;26.52;;
63902;SDS011;50072;50.678;13.938;2022-11-24T10:04:19;64.22;;;26.70;;
63902;SDS011;50072;50.678;13.938;2022-11-24T10:21:54;51.80;;;21.60;;
63902;SDS011;50072;50.678;13.938;2022-11-24T10:27:39;49.58;;;21.98;;
63902;SDS011;50072;50.678;13.938;2022-11-24T10:32:49;51.65;;;21.50;;
63902;SDS011;50072;50.678;13.938;2022-11-24T10:35:35;45.78;;;20.50;;
63902;SDS011;50072;50.678;13.938;2022-11-24T10:41:04;46.20;;;20.15;;
63902;SDS011;50072;50.678;13.938;2022-11-24T10:43:39;47.13;;;20.63;;
63902;SDS011;50072;50.678;13.938;2022-11-24T10:46:20;79.93;;;36.53;;
63902;SDS011;50072;50.678;13.938;2022-11-24T10:48:49;56.28;;;24.35;;
63902;SDS011;50072;50.678;13.938;2022-11-24T10:51:34;46.70;;;20.13;;
63902;SDS011;50072;50.678;13.938;2022-11-24T10:54:19;52.95;;;20.08;;
63902;SDS011;50072;50.678;13.938;2022-11-24T10:56:52;52.25;;;21.33;;
63902;SDS011;50072;50.678;13.938;2022-11-24T10:59:20;56.47;;;22.85;;
63902;SDS011;50072;50.678;13.938;2022-11-24T11:01:58;49.58;;;22.92;;
63902;SDS011;50072;50.678;13.938;2022-11-24T11:04:36;49.45;;;20.88;;
63902;SDS011;50072;50.678;13.938;2022-11-24T11:07:19;46.95;;;20.17;;
63902;SDS011;50072;50.678;13.938;2022-11-24T11:09:48;55.13;;;22.20;;
63902;SDS011;50072;50.678;13.938;2022-11-24T11:12:19;58.88;;;23.70;;
63902;SDS011;50072;50.678;13.938;2022-11-24T11:23:48;75.57;;;32.03;;
63902;SDS011;50072;50.678;13.938;2022-11-24T11:26:26;60.10;;;23.45;;
63902;SDS011;50072;50.678;13.938;2022-11-24T11:34:46;85.57;;;33.83;;
63902;SDS011;50072;50.678;13.938;2022-11-24T11:37:22;62.53;;;27.85;;
63902;SDS011;50072;50.678;13.938;2022-11-24T11:42:54;64.50;;;27.88;;
63902;SDS011;50072;50.678;13.938;2022-11-24T11:45:37;62.72;;;26.02;;
63902;SDS011;50072;50.678;13.938;2022-11-24T12:18:01;54.78;;;24.08;;
63902;SDS011;50072;50.678;13.938;2022-11-24T12:20:43;50.42;;;23.35;;
63902;SDS011;50072;50.678;13.938;2022-11-24T12:23:41;51.00;;;22.23;;
63902;SDS011;50072;50.678;13.938;2022-11-24T12:35:24;53.28;;;23.15;;
63902;SDS011;50072;50.678;13.938;2022-11-24T12:38:02;54.78;;;22.55;;
63902;SDS011;50072;50.678;13.938;2022-11-24T12:43:49;66.82;;;27.23;;
63902;SDS011;50072;50.678;13.938;2022-11-24T12:52:25;56.75;;;24.92;;
63902;SDS011;50072;50.678;13.938;2022-11-24T12:55:01;50.85;;;22.95;;
63902;SDS011;50072;50.678;13.938;2022-11-24T13:01:01;48.05;;;20.00;;
63902;SDS011;50072;50.678;13.938;2022-11-24T13:03:35;54.55;;;23.80;;
63902;SDS011;50072;50.678;13.938;2022-11-24T13:09:07;49.60;;;22.17;;
63902;SDS011;50072;50.678;13.938;2022-11-24T13:11:38;48.22;;;21.27;;
63902;SDS011;50072;50.678;13.938;2022-11-24T13:14:51;48.45;;;21.13;;
63902;SDS011;50072;50.678;13.938;2022-11-24T13:20:56;46.85;;;21.33;;
63902;SDS011;50072;50.678;13.938;2022-11-24T13:23:04;62.33;;;23.23;;
63902;SDS011;50072;50.678;13.938;2022-11-24T13:25:31;51.97;;;22.88;;
63902;SDS011;50072;50.678;13.938;2022-11-24T13:28:03;51.20;;;22.58;;
63902;SDS011;50072;50.678;13.938;2022-11-24T13:35:38;54.03;;;22.85;;
63902;SDS011;50072;50.678;13.938;2022-11-24T13:41:11;45.88;;;20.05;;
63902;SDS011;50072;50.678;13.938;2022-11-24T13:49:39;45.20;;;19.73;;
63902;SDS011;50072;50.678;13.938;2022-11-24T13:57:44;43.03;;;19.05;;
63902;SDS011;50072;50.678;13.938;2022-11-24T14:00:29;43.25;;;18.80;;
63902;SDS011;50072;50.678;13.938;2022-11-24T14:05:32;44.17;;;18.73;;
63902;SDS011;50072;50.678;13.938;2022-11-24T14:08:03;50.25;;;20.35;;
63902;SDS011;50072;50.678;13.938;2022-11-24T14:10:35;45.22;;;20.27;;
63902;SDS011;50072;50.678;13.938;2022-11-24T14:18:40;40.83;;;19.98;;
63902;SDS011;50072;50.678;13.938;2022-11-24T14:23:42;56.90;;;24.65;;
63902;SDS011;50072;50.678;13.938;2022-11-24T14:26:20;52.33;;;23.35;;
63902;SDS011;50072;50.678;13.938;2022-11-24T14:28:53;47.70;;;20.38;;
63902;SDS011;50072;50.678;13.938;2022-11-24T14:31:28;55.95;;;21.85;;
63902;SDS011;50072;50.678;13.938;2022-11-24T14:36:37;48.08;;;21.98;;
63902;SDS011;50072;50.678;13.938;2022-11-24T14:39:04;50.90;;;23.00;;
63902;SDS011;50072;50.678;13.938;2022-11-24T14:41:30;50.15;;;22.63;;
63902;SDS011;50072;50.678;13.938;2022-11-24T14:46:48;52.67;;;24.67;;
63902;SDS011;50072;50.678;13.938;2022-11-24T14:49:16;65.03;;;27.17;;
63902;SDS011;50072;50.678;13.938;2022-11-24T14:51:44;61.25;;;26.52;;
63902;SDS011;50072;50.678;13.938;2022-11-24T14:54:17;65.05;;;26.65;;
63902;SDS011;50072;50.678;13.938;2022-11-24T14:56:56;63.60;;;27.48;;
63902;SDS011;50072;50.678;13.938;2022-11-24T14:59:32;60.58;;;26.27;;
63902;SDS011;50072;50.678;13.938;2022-11-24T15:02:00;64.57;;;27.52;;
63902;SDS011;50072;50.678;13.938;2022-11-24T15:04:27;74.88;;;32.35;;
63902;SDS011;50072;50.678;13.938;2022-11-24T15:07:01;69.53;;;30.75;;
63902;SDS011;50072;50.678;13.938;2022-11-24T15:09:34;74.57;;;33.83;;
63902;SDS011;50072;50.678;13.938;2022-11-24T15:12:06;79.13;;;35.10;;
63902;SDS011;50072;50.678;13.938;2022-11-24T15:17:26;70.07;;;31.63;;
63902;SDS011;50072;50.678;13.938;2022-11-24T15:22:42;74.25;;;31.60;;
63902;SDS011;50072;50.678;13.938;2022-11-24T15:27:54;64.72;;;28.73;;
63902;SDS011;50072;50.678;13.938;2022-11-24T15:30:20;65.32;;;28.75;;
63902;SDS011;50072;50.678;13.938;2022-11-24T15:32:52;63.95;;;26.92;;
63902;SDS011;50072;50.678;13.938;2022-11-24T15:35:19;68.30;;;27.13;;
63902;SDS011;50072;50.678;13.938;2022-11-24T15:37:46;58.90;;;26.58;;
63902;SDS011;50072;50.678;13.938;2022-11-24T15:40:11;64.63;;;27.60;;
63902;SDS011;50072;50.678;13.938;2022-11-24T15:42:38;65.55;;;28.23;;
63902;SDS011;50072;50.678;13.938;2022-11-24T15:45:04;62.60;;;28.50;;
63902;SDS011;50072;50.678;13.938;2022-11-24T15:47:31;60.22;;;27.63;;
63902;SDS011;50072;50.678;13.938;2022-11-24T15:49:58;61.83;;;27.58;;
63902;SDS011;50072;50.678;13.938;2022-11-24T15:52:24;73.78;;;31.63;;
63902;SDS011;50072;50.678;13.938;2022-11-24T15:54:51;70.18;;;30.13;;
63902;SDS011;50072;50.678;13.938;2022-11-24T15:57:21;67.47;;;30.23;;
63902;SDS011;50072;50.678;13.938;2022-11-24T15:59:47;80.30;;;35.60;;
63902;SDS011;50072;50.678;13.938;2022-11-24T16:02:14;77.80;;;32.38;;
63902;SDS011;50072;50.678;13.938;2022-11-24T16:04:39;84.30;;;35.95;;
63902;SDS011;50072;50.678;13.938;2022-11-24T16:07:12;89.28;;;37.45;;
63902;SDS011;50072;50.678;13.938;2022-11-24T16:09:48;81.57;;;33.58;;
63902;SDS011;50072;50.678;13.938;2022-11-24T16:12:28;79.93;;;33.47;;
63902;SDS011;50072;50.678;13.938;2022-11-24T16:17:48;72.57;;;30.70;;
63902;SDS011;50072;50.678;13.938;2022-11-24T16:20:20;72.93;;;30.00;;
63902;SDS011;50072;50.678;13.938;2022-11-24T16:22:48;64.18;;;27.52;;
63902;SDS011;50072;50.678;13.938;2022-11-24T16:25:25;69.85;;;29.27;;
63902;SDS011;50072;50.678;13.938;2022-11-24T16:27:57;94.28;;;39.40;;
63902;SDS011;50072;50.678;13.938;2022-11-24T16:30:24;223.95;;;87.18;;
63902;SDS011;50072;50.678;13.938;2022-11-24T16:32:50;243.10;;;91.85;;
63902;SDS011;50072;50.678;13.938;2022-11-24T16:35:15;260.50;;;95.80;;
63902;SDS011;50072;50.678;13.938;2022-11-24T16:37:41;169.88;;;65.80;;
63902;SDS011;50072;50.678;13.938;2022-11-24T16:40:07;125.93;;;51.63;;
63902;SDS011;50072;50.678;13.938;2022-11-24T16:42:34;104.57;;;43.17;;
63902;SDS011;50072;50.678;13.938;2022-11-24T16:44:59;93.47;;;39.92;;
63902;SDS011;50072;50.678;13.938;2022-11-24T16:47:26;97.07;;;40.35;;
63902;SDS011;50072;50.678;13.938;2022-11-24T16:49:52;82.50;;;33.38;;
63902;SDS011;50072;50.678;13.938;2022-11-24T16:52:18;84.53;;;37.60;;
63902;SDS011;50072;50.678;13.938;2022-11-24T16:54:47;100.10;;;41.83;;
63902;SDS011;50072;50.678;13.938;2022-11-24T16:57:13;136.52;;;53.47;;
63902;SDS011;50072;50.678;13.938;2022-11-24T16:59:40;131.38;;;55.20;;
63902;SDS011;50072;50.678;13.938;2022-11-24T17:02:08;116.95;;;50.00;;
63902;SDS011;50072;50.678;13.938;2022-11-24T17:04:38;105.75;;;44.55;;
63902;SDS011;50072;50.678;13.938;2022-11-24T17:07:04;107.82;;;43.10;;
63902;SDS011;50072;50.678;13.938;2022-11-24T17:09:30;87.43;;;36.78;;
63902;SDS011;50072;50.678;13.938;2022-11-24T17:11:56;79.18;;;35.95;;
63902;SDS011;50072;50.678;13.938;2022-11-24T17:14:21;101.32;;;40.17;;
63902;SDS011;50072;50.678;13.938;2022-11-24T17:16:47;87.38;;;37.15;;
63902;SDS011;50072;50.678;13.938;2022-11-24T17:19:13;77.72;;;33.65;;
63902;SDS011;50072;50.678;13.938;2022-11-24T17:21:39;66.93;;;31.42;;
63902;SDS011;50072;50.678;13.938;2022-11-24T17:24:05;79.38;;;31.33;;
63902;SDS011;50072;50.678;13.938;2022-11-24T17:26:31;70.93;;;31.45;;
63902;SDS011;50072;50.678;13.938;2022-11-24T17:31:28;111.93;;;45.53;;
63902;SDS011;50072;50.678;13.938;2022-11-24T17:33:57;99.07;;;41.70;;
63902;SDS011;50072;50.678;13.938;2022-11-24T17:36:25;119.60;;;48.10;;
63902;SDS011;50072;50.678;13.938;2022-11-24T17:38:52;88.78;;;37.13;;
63902;SDS011;50072;50.678;13.938;2022-11-24T17:41:18;85.10;;;35.08;;
63902;SDS011;50072;50.678;13.938;2022-11-24T17:43:52;81.50;;;35.85;;
63902;SDS011;50072;50.678;13.938;2022-11-24T17:46:27;87.90;;;37.05;;
63902;SDS011;50072;50.678;13.938;2022-11-24T17:49:03;101.25;;;42.22;;
63902;SDS011;50072;50.678;13.938;2022-11-24T17:51:30;102.78;;;44.90;;